Time;durP1;ratioP1;P1;durP2;ratioP2;P2;SDS_P1;SDS_P2;PMS_P1;PMS_P2;Temp;Humidity;BMP_temperature;BMP_pressure;BME280_temperature;BME280_humidity;BME280_pressure;Samples;Min_cycle;Max_cycle;Signal;HPM_P1;HPM_P2
2021/07/27 00:00:36;;;;;;;;;;;25.30;69.10;;;;;;5118710;27;19977;-52
2021/07/27 00:03:03;;;;;;;;;;;25.30;69.20;;;;;;5134672;27;20313;-54
2021/07/27 00:05:31;;;;;;;;;;;25.30;69.30;;;;;;5134643;27;19923;-55
2021/07/27 00:07:58;;;;;;;;;;;25.30;69.30;;;;;;5134749;27;19938;-56
2021/07/27 00:10:26;;;;;;;;;;;25.30;69.30;;;;;;5132260;27;19923;-55
2021/07/27 00:12:53;;;;;;;;;;;25.30;69.50;;;;;;5135486;27;19970;-56
2021/07/27 00:15:20;;;;;;;;;;;25.30;69.50;;;;;;5135618;27;19980;-54
2021/07/27 00:17:51;;;;;;;;;;;25.30;69.50;;;;;;5135849;27;19923;-53
2021/07/27 00:20:18;;;;;;;;;;;25.30;69.60;;;;;;5135528;27;20010;-54
2021/07/27 00:22:45;;;;;;;;;;;25.30;69.60;;;;;;5135601;27;19923;-55
2021/07/27 00:25:16;;;;;;;;;;;25.30;69.60;;;;;;5126698;27;19930;-56
2021/07/27 00:27:44;;;;;;;;;;;25.30;69.60;;;;;;5124116;27;19928;-56
2021/07/27 00:30:12;;;;;;;;;;;25.30;69.60;;;;;;5133980;27;19927;-56
2021/07/27 00:32:41;;;;;;;;;;;25.30;69.50;;;;;;5135257;27;19927;-53
2021/07/27 00:35:09;;;;;;;;;;;25.30;69.50;;;;;;5132684;27;20014;-52
2021/07/27 00:37:38;;;;;;;;;;;25.30;69.60;;;;;;5121840;27;20425;-55
2021/07/27 00:40:11;;;;;;;;;;;25.30;69.60;;;;;;5133841;27;20294;-52
2021/07/27 00:42:45;;;;;;;;;;;25.30;69.70;;;;;;5132288;27;19931;-53
2021/07/27 00:45:12;;;;;;;;;;;25.30;69.80;;;;;;5118067;27;19953;-52
2021/07/27 00:47:39;;;;;;;;;;;25.20;69.60;;;;;;5117915;27;20353;-55
2021/07/27 00:50:07;;;;;;;;;;;25.20;69.70;;;;;;5119098;27;20318;-54
2021/07/27 00:52:35;;;;;;;;;;;25.20;69.60;;;;;;5134959;27;19923;-52
2021/07/27 00:55:03;;;;;;;;;;;25.20;69.70;;;;;;5124047;27;19967;-53
2021/07/27 00:57:30;;;;;;;;;;;25.20;69.70;;;;;;5134074;27;19955;-51
2021/07/27 01:00:00;;;;;;;;;;;25.20;69.60;;;;;;5134515;27;19974;-51
2021/07/27 01:02:29;;;;;;;;;;;25.20;69.60;;;;;;5132509;27;19927;-54
2021/07/27 01:04:57;;;;;;;;;;;25.20;69.60;;;;;;5132825;27;19928;-52
2021/07/27 01:07:25;;;;;;;;;;;25.20;69.60;;;;;;5115245;27;19955;-53
2021/07/27 01:09:53;;;;;;;;;;;25.20;69.60;;;;;;5134805;27;19924;-53
2021/07/27 01:12:20;;;;;;;;;;;25.20;69.60;;;;;;5131946;27;20347;-51
2021/07/27 01:14:47;;;;;;;;;;;25.20;69.70;;;;;;5133038;27;19970;-51
2021/07/27 01:17:13;;;;;;;;;;;25.20;69.70;;;;;;5132988;27;20517;-50
2021/07/27 01:43:46;;;;;;;;;;;25.10;69.60;;;;;;5134229;27;19924;-53
2021/07/27 01:46:15;;;;;;;;;;;25.10;69.70;;;;;;5131997;27;19923;-52
2021/07/27 01:48:43;;;;;;;;;;;25.10;69.80;;;;;;5132655;27;20374;-52
2021/07/27 01:51:12;;;;;;;;;;;25.10;69.80;;;;;;5132522;27;19923;-52
2021/07/27 01:53:50;;;;;;;;;;;25.10;69.80;;;;;;5133190;27;19924;-56
2021/07/27 01:56:17;;;;;;;;;;;25.10;69.80;;;;;;5133391;27;19982;-54
2021/07/27 01:58:51;;;;;;;;;;;25.10;69.80;;;;;;5132832;27;19924;-54
2021/07/27 02:01:20;;;;;;;;;;;25.10;69.80;;;;;;5134036;27;19946;-56
2021/07/27 02:03:47;;;;;;;;;;;25.10;69.80;;;;;;5131417;27;20002;-55
2021/07/27 02:06:15;;;;;;;;;;;25.10;69.80;;;;;;5132455;27;20431;-49
2021/07/27 02:08:42;;;;;;;;;;;25.00;69.70;;;;;;5132591;27;19927;-51
2021/07/27 02:11:12;;;;;;;;;;;25.10;69.90;;;;;;5132866;28;19980;-49
2021/07/27 02:13:50;;;;;;;;;;;25.00;69.80;;;;;;5132331;27;19923;-55
2021/07/27 02:16:17;;;;;;;;;;;25.10;69.80;;;;;;5133918;28;19937;-53
2021/07/27 02:18:44;;;;;;;;;;;25.10;70.40;;;;;;5119973;28;20337;-56
2021/07/27 02:21:11;;;;;;;;;;;25.10;69.70;;;;;;5127661;28;19924;-52
2021/07/27 02:23:38;;;;;;;;;;;25.10;69.70;;;;;;5133722;28;19931;-54
2021/07/27 02:26:05;;;;;;;;;;;25.10;69.70;;;;;;5133344;28;19972;-54
2021/07/27 02:28:33;;;;;;;;;;;25.00;69.50;;;;;;5133134;28;20010;-52
2021/07/27 02:31:05;;;;;;;;;;;25.10;69.50;;;;;;5125797;28;20452;-51
2021/07/27 02:33:38;;;;;;;;;;;25.00;69.40;;;;;;5115104;28;20006;-49
2021/07/27 02:36:05;;;;;;;;;;;25.00;69.40;;;;;;5121146;28;19927;-54
2021/07/27 02:38:32;;;;;;;;;;;25.00;69.40;;;;;;5133291;28;19930;-50
2021/07/27 02:41:00;;;;;;;;;;;25.00;69.50;;;;;;5131805;28;20366;-53
2021/07/27 02:43:28;;;;;;;;;;;25.00;69.50;;;;;;5132023;28;19930;-51
2021/07/27 02:45:55;;;;;;;;;;;25.00;69.50;;;;;;5131754;28;19923;-51
2021/07/27 02:48:22;;;;;;;;;;;25.00;69.50;;;;;;5131938;28;20393;-51
2021/07/27 02:50:59;;;;;;;;;;;25.00;69.50;;;;;;5131761;28;19924;-52
2021/07/27 02:53:30;;;;;;;;;;;25.00;69.50;;;;;;5132097;28;19930;-52
2021/07/27 02:55:58;;;;;;;;;;;25.00;69.60;;;;;;5130384;28;20336;-55
2021/07/27 02:58:25;;;;;;;;;;;25.00;69.60;;;;;;5131460;28;19980;-54
2021/07/27 03:00:52;;;;;;;;;;;24.90;69.50;;;;;;5131673;28;19923;-53
2021/07/27 03:03:19;;;;;;;;;;;24.90;69.50;;;;;;5132214;28;19927;-51
2021/07/27 03:05:46;;;;;;;;;;;24.90;69.50;;;;;;5132714;28;19924;-54
2021/07/27 03:08:21;;;;;;;;;;;25.00;69.60;;;;;;5132142;28;19924;-56
2021/07/27 03:10:48;;;;;;;;;;;24.90;69.50;;;;;;5132653;28;19927;-55
2021/07/27 03:13:15;;;;;;;;;;;24.90;69.50;;;;;;5133153;28;19974;-55
2021/07/27 03:15:42;;;;;;;;;;;24.90;69.60;;;;;;5131474;28;20347;-53
2021/07/27 03:18:09;;;;;;;;;;;24.90;69.60;;;;;;5132820;28;20375;-55
2021/07/27 03:20:36;;;;;;;;;;;24.90;69.60;;;;;;5131668;28;19958;-55
2021/07/27 03:23:02;;;;;;;;;;;24.90;69.50;;;;;;5117647;28;20442;-55
2021/07/27 03:25:29;;;;;;;;;;;24.90;69.60;;;;;;5116569;28;19924;-54
2021/07/27 03:27:56;;;;;;;;;;;24.90;69.50;;;;;;5119426;27;20416;-53
2021/07/27 03:30:23;;;;;;;;;;;24.90;69.60;;;;;;5130513;27;19927;-55
2021/07/27 03:32:50;;;;;;;;;;;24.90;69.60;;;;;;5136713;27;19958;-52
2021/07/27 03:35:18;;;;;;;;;;;24.90;69.60;;;;;;5127541;27;20362;-55
2021/07/27 03:37:44;;;;;;;;;;;24.90;69.60;;;;;;5125135;27;19968;-54
2021/07/27 03:40:13;;;;;;;;;;;24.90;69.60;;;;;;5134201;27;19968;-55
2021/07/27 03:42:40;;;;;;;;;;;24.90;69.60;;;;;;5136081;27;19966;-54
2021/07/27 03:45:07;;;;;;;;;;;24.90;69.60;;;;;;5133477;27;19927;-54
2021/07/27 03:47:34;;;;;;;;;;;24.90;69.50;;;;;;5116143;27;19953;-55
2021/07/27 03:50:01;;;;;;;;;;;24.90;69.50;;;;;;5134955;27;19931;-53
2021/07/27 03:52:28;;;;;;;;;;;24.90;69.50;;;;;;5134887;27;20006;-54
2021/07/27 03:54:55;;;;;;;;;;;24.90;69.50;;;;;;5133246;27;20383;-53
2021/07/27 03:57:22;;;;;;;;;;;24.90;69.40;;;;;;5135087;27;19974;-55
2021/07/27 03:59:49;;;;;;;;;;;24.90;69.40;;;;;;5116767;27;19947;-54
2021/07/27 04:02:16;;;;;;;;;;;24.90;69.40;;;;;;5134319;27;20395;-54
2021/07/27 04:04:46;;;;;;;;;;;24.90;69.20;;;;;;5135986;27;19924;-55
2021/07/27 04:07:13;;;;;;;;;;;24.90;69.30;;;;;;5135171;27;19924;-51
2021/07/27 04:09:40;;;;;;;;;;;24.90;69.30;;;;;;5136153;27;19988;-56
2021/07/27 04:12:07;;;;;;;;;;;24.90;69.30;;;;;;5135575;27;19970;-55
2021/07/27 04:14:34;;;;;;;;;;;24.90;69.20;;;;;;5135919;27;19923;-52
2021/07/27 04:17:02;;;;;;;;;;;24.90;69.20;;;;;;5121066;27;20379;-53
2021/07/27 04:19:29;;;;;;;;;;;24.90;69.10;;;;;;5132315;27;19923;-53
2021/07/27 04:21:56;;;;;;;;;;;24.90;69.10;;;;;;5135659;27;20060;-53
2021/07/27 04:24:23;;;;;;;;;;;24.90;69.10;;;;;;5133867;27;19968;-56
2021/07/27 04:26:50;;;;;;;;;;;24.90;69.10;;;;;;5135566;27;19952;-54
2021/07/27 04:29:18;;;;;;;;;;;24.90;69.10;;;;;;5132987;27;19923;-53
2021/07/27 04:31:51;;;;;;;;;;;24.90;69.00;;;;;;5124112;27;19924;-54
2021/07/27 04:34:18;;;;;;;;;;;24.90;69.00;;;;;;5118713;27;20015;-50
2021/07/27 04:36:48;;;;;;;;;;;24.90;69.10;;;;;;5127810;27;20358;-52
2021/07/27 04:39:15;;;;;;;;;;;25.00;69.10;;;;;;5135482;27;19923;-55
2021/07/27 04:41:42;;;;;;;;;;;25.00;68.90;;;;;;5135024;27;19968;-53
2021/07/27 04:44:09;;;;;;;;;;;25.10;68.80;;;;;;5134669;27;19924;-54
2021/07/27 04:46:36;;;;;;;;;;;25.10;68.80;;;;;;5134069;27;19989;-52
2021/07/27 04:49:04;;;;;;;;;;;25.20;68.60;;;;;;5132314;27;20390;-52
2021/07/27 04:51:31;;;;;;;;;;;25.20;69.20;;;;;;5133769;27;19976;-52
2021/07/27 04:53:58;;;;;;;;;;;25.20;68.50;;;;;;5133389;27;20367;-55
2021/07/27 04:56:25;;;;;;;;;;;25.20;68.30;;;;;;5133410;27;19928;-55
2021/07/27 04:58:52;;;;;;;;;;;25.20;68.30;;;;;;5116212;27;19976;-57
2021/07/27 05:01:19;;;;;;;;;;;25.30;68.30;;;;;;5132603;27;19944;-54
2021/07/27 05:03:46;;;;;;;;;;;25.30;68.10;;;;;;5135032;27;19923;-51
2021/07/27 05:06:13;;;;;;;;;;;25.30;67.90;;;;;;5135152;27;19970;-52
2021/07/27 05:08:42;;;;;;;;;;;25.30;68.00;;;;;;5135031;27;19976;-53
2021/07/27 05:11:09;;;;;;;;;;;25.40;67.90;;;;;;5133306;27;19924;-53
2021/07/27 05:13:36;;;;;;;;;;;25.40;67.80;;;;;;5119131;27;19924;-55
2021/07/27 05:16:03;;;;;;;;;;;25.40;67.70;;;;;;5132108;27;19930;-52
2021/07/27 05:18:30;;;;;;;;;;;25.40;67.60;;;;;;5121030;27;19978;-52
2021/07/27 05:20:57;;;;;;;;;;;25.40;67.60;;;;;;5129555;27;19924;-52
2021/07/27 05:23:24;;;;;;;;;;;25.40;67.50;;;;;;5132686;27;19928;-54
2021/07/27 05:25:51;;;;;;;;;;;25.40;67.60;;;;;;5121293;27;19969;-55
2021/07/27 05:28:18;;;;;;;;;;;25.50;67.50;;;;;;5123833;27;19923;-51
2021/07/27 05:30:45;;;;;;;;;;;25.50;67.40;;;;;;5134403;27;19923;-53
2021/07/27 05:33:12;;;;;;;;;;;25.50;67.30;;;;;;5133999;27;20010;-53
2021/07/27 05:35:39;;;;;;;;;;;25.60;67.20;;;;;;5126287;27;19981;-51
2021/07/27 05:38:06;;;;;;;;;;;25.60;67.10;;;;;;5104667;27;20518;-51
2021/07/27 05:40:33;;;;;;;;;;;25.60;66.90;;;;;;5133058;27;19935;-49
2021/07/27 05:43:00;;;;;;;;;;;25.70;66.80;;;;;;5131647;27;20294;-55
2021/07/27 05:45:27;;;;;;;;;;;25.80;66.70;;;;;;5130207;27;20109;-54
2021/07/27 05:47:54;;;;;;;;;;;25.80;66.50;;;;;;5116794;27;20010;-55
2021/07/27 05:50:21;;;;;;;;;;;25.90;66.30;;;;;;5114223;27;19924;-51
2021/07/27 05:52:48;;;;;;;;;;;25.90;66.30;;;;;;5133698;27;19923;-51
2021/07/27 05:55:15;;;;;;;;;;;25.90;66.10;;;;;;5131814;27;19927;-51
2021/07/27 05:57:42;;;;;;;;;;;25.90;66.00;;;;;;5133478;27;19923;-54
2021/07/27 06:00:09;;;;;;;;;;;26.00;66.00;;;;;;5133874;27;19998;-55
2021/07/27 06:02:36;;;;;;;;;;;26.00;65.90;;;;;;5134206;27;19924;-52
2021/07/27 06:05:03;;;;;;;;;;;26.00;65.80;;;;;;5132484;27;19936;-51
2021/07/27 06:07:32;;;;;;;;;;;26.00;65.70;;;;;;5133524;27;19989;-51
2021/07/27 06:09:58;;;;;;;;;;;26.00;65.70;;;;;;5133638;27;19971;-57
2021/07/27 06:12:26;;;;;;;;;;;26.00;65.60;;;;;;5115689;28;20358;-53
2021/07/27 06:14:53;;;;;;;;;;;26.10;65.50;;;;;;5133382;28;19927;-54
2021/07/27 06:17:20;;;;;;;;;;;26.10;65.50;;;;;;5120543;28;19923;-56
2021/07/27 06:19:47;;;;;;;;;;;26.00;65.50;;;;;;5125914;28;19923;-57
2021/07/27 06:22:16;;;;;;;;;;;26.10;65.60;;;;;;5132120;28;19977;-55
2021/07/27 06:24:43;;;;;;;;;;;26.10;65.60;;;;;;5124619;28;20318;-56
2021/07/27 06:27:10;;;;;;;;;;;26.10;65.60;;;;;;5124504;28;20355;-55
2021/07/27 06:29:37;;;;;;;;;;;26.00;65.50;;;;;;5114058;28;20403;-55
2021/07/27 06:32:04;;;;;;;;;;;26.10;65.60;;;;;;5132234;28;19924;-55
2021/07/27 06:34:31;;;;;;;;;;;26.00;65.60;;;;;;5132266;28;20361;-56
2021/07/27 06:36:58;;;;;;;;;;;26.10;65.40;;;;;;5114212;28;19923;-56
2021/07/27 06:39:25;;;;;;;;;;;26.10;65.40;;;;;;5132115;28;19933;-55
2021/07/27 06:41:55;;;;;;;;;;;26.20;65.40;;;;;;5133237;28;20008;-57
2021/07/27 06:44:22;;;;;;;;;;;26.20;65.10;;;;;;5131970;28;19954;-57
2021/07/27 06:46:53;;;;;;;;;;;26.20;65.20;;;;;;5132260;28;19930;-57
2021/07/27 06:49:20;;;;;;;;;;;26.20;65.00;;;;;;5133462;28;20387;-54
2021/07/27 06:51:47;;;;;;;;;;;26.20;64.90;;;;;;5115092;28;19924;-55
2021/07/27 06:54:14;;;;;;;;;;;26.20;64.80;;;;;;5115202;28;20344;-56
2021/07/27 06:56:44;;;;;;;;;;;26.30;65.00;;;;;;5114737;28;19950;-51
2021/07/27 06:59:11;;;;;;;;;;;26.30;65.00;;;;;;5132736;28;20276;-55
2021/07/27 07:01:38;;;;;;;;;;;26.20;64.90;;;;;;5119970;27;20391;-56
2021/07/27 07:04:05;;;;;;;;;;;26.20;64.80;;;;;;5136009;27;19977;-56
2021/07/27 07:06:32;;;;;;;;;;;26.20;64.80;;;;;;5135499;27;19923;-53
2021/07/27 07:08:59;;;;;;;;;;;26.20;65.00;;;;;;5137060;27;19923;-52
2021/07/27 07:11:27;;;;;;;;;;;26.20;64.90;;;;;;5135883;27;20287;-56
2021/07/27 07:13:54;;;;;;;;;;;26.20;64.80;;;;;;5137129;27;19972;-56
2021/07/27 07:16:21;;;;;;;;;;;26.30;64.80;;;;;;5135543;27;19923;-56
2021/07/27 07:18:48;;;;;;;;;;;26.30;64.30;;;;;;5136633;27;19974;-55
2021/07/27 07:21:16;;;;;;;;;;;26.30;64.20;;;;;;5134321;27;19974;-54
2021/07/27 07:23:42;;;;;;;;;;;26.40;64.30;;;;;;5134153;27;19930;-55
2021/07/27 07:26:09;;;;;;;;;;;26.40;64.00;;;;;;5135524;27;20342;-55
2021/07/27 07:28:39;;;;;;;;;;;26.40;64.00;;;;;;5135534;27;19973;-52
2021/07/27 07:31:09;;;;;;;;;;;26.50;63.90;;;;;;5135303;27;19966;-52
2021/07/27 07:33:37;;;;;;;;;;;26.50;63.70;;;;;;5134576;27;19923;-51
2021/07/27 07:36:11;;;;;;;;;;;26.60;63.60;;;;;;5134876;27;19924;-54
2021/07/27 07:38:38;;;;;;;;;;;26.50;63.50;;;;;;5135258;27;19962;-52
2021/07/27 07:41:06;;;;;;;;;;;26.60;63.50;;;;;;5133876;27;19935;-56
2021/07/27 07:43:33;;;;;;;;;;;26.60;63.40;;;;;;5136316;27;20002;-55
2021/07/27 07:46:00;;;;;;;;;;;26.60;63.20;;;;;;5135159;27;19923;-54
2021/07/27 07:48:27;;;;;;;;;;;26.60;63.10;;;;;;5136476;27;19931;-52
2021/07/27 07:50:54;;;;;;;;;;;26.60;63.20;;;;;;5136106;27;19927;-53
2021/07/27 07:53:21;;;;;;;;;;;26.70;63.20;;;;;;5136359;27;19982;-53
2021/07/27 07:55:48;;;;;;;;;;;26.70;63.40;;;;;;5133445;27;19923;-53
2021/07/27 07:58:15;;;;;;;;;;;26.60;63.20;;;;;;5134926;27;19923;-50
2021/07/27 08:00:42;;;;;;;;;;;26.60;63.40;;;;;;5136359;27;19924;-54
2021/07/27 08:03:09;;;;;;;;;;;26.60;63.50;;;;;;5118088;27;20285;-53
2021/07/27 08:05:36;;;;;;;;;;;26.60;63.80;;;;;;5132130;27;19974;-55
2021/07/27 08:08:03;;;;;;;;;;;26.70;63.70;;;;;;5134765;27;19998;-55
2021/07/27 08:10:30;;;;;;;;;;;26.70;63.70;;;;;;5135563;27;19923;-52
2021/07/27 08:12:57;;;;;;;;;;;26.80;63.00;;;;;;5134841;27;19934;-53
2021/07/27 08:15:26;;;;;;;;;;;26.70;63.00;;;;;;5116698;27;19924;-50
2021/07/27 08:17:53;;;;;;;;;;;26.80;62.90;;;;;;5132920;27;19962;-57
2021/07/27 08:20:21;;;;;;;;;;;26.90;62.70;;;;;;5124217;27;19924;-52
2021/07/27 08:22:48;;;;;;;;;;;26.90;62.50;;;;;;5116233;27;19980;-53
2021/07/27 08:25:16;;;;;;;;;;;26.90;62.40;;;;;;5125585;27;19980;-56
2021/07/27 08:27:44;;;;;;;;;;;27.00;62.00;;;;;;5133509;27;19931;-50
2021/07/27 08:30:13;;;;;;;;;;;27.00;61.80;;;;;;5134469;27;19923;-52
2021/07/27 08:32:43;;;;;;;;;;;27.00;61.80;;;;;;5135239;27;20286;-60
2021/07/27 08:35:11;;;;;;;;;;;27.10;61.90;;;;;;5133452;27;19927;-61
2021/07/27 08:37:38;;;;;;;;;;;27.10;61.20;;;;;;5120620;27;20386;-60
2021/07/27 08:40:05;;;;;;;;;;;27.10;61.30;;;;;;5134963;27;19976;-60
2021/07/27 08:42:33;;;;;;;;;;;27.10;61.40;;;;;;5134758;27;19971;-59
2021/07/27 08:45:01;;;;;;;;;;;27.10;61.20;;;;;;5133208;27;20371;-59
2021/07/27 08:47:29;;;;;;;;;;;27.10;61.00;;;;;;5133631;27;19978;-60
2021/07/27 08:49:58;;;;;;;;;;;27.00;61.20;;;;;;5133445;27;19930;-59
2021/07/27 08:52:24;;;;;;;;;;;27.00;61.30;;;;;;5117012;27;20011;-60
2021/07/27 08:54:53;;;;;;;;;;;27.00;61.20;;;;;;5133741;27;19976;-61
2021/07/27 08:57:20;;;;;;;;;;;27.00;61.30;;;;;;5116984;27;20357;-59
2021/07/27 08:59:48;;;;;;;;;;;27.00;61.20;;;;;;5115900;27;20256;-60
2021/07/27 09:02:26;;;;;;;;;;;26.90;61.10;;;;;;5132464;27;19979;-60
2021/07/27 09:05:06;;;;;;;;;;;26.90;61.30;;;;;;5134436;27;19923;-60
2021/07/27 09:07:33;;;;;;;;;;;26.90;61.50;;;;;;5133614;27;19924;-60
2021/07/27 09:10:15;;;;;;;;;;;26.90;61.20;;;;;;5133133;27;20291;-60
2021/07/27 09:12:53;;;;;;;;;;;26.90;61.30;;;;;;5134149;27;19980;-59
2021/07/27 09:15:21;;;;;;;;;;;26.90;60.30;;;;;;5134496;27;19982;-59
2021/07/27 09:18:07;;;;;;;;;;;26.90;60.20;;;;;;5131938;27;19929;-60
2021/07/27 09:20:35;;;;;;;;;;;26.90;60.50;;;;;;5133661;27;20360;-60
2021/07/27 09:23:02;;;;;;;;;;;26.80;60.70;;;;;;5114101;28;19928;-60
2021/07/27 09:25:30;;;;;;;;;;;26.80;60.70;;;;;;5133027;27;20264;-61
2021/07/27 09:28:01;;;;;;;;;;;26.80;60.80;;;;;;5134273;27;19923;-60
2021/07/27 09:30:29;;;;;;;;;;;26.80;60.70;;;;;;5132880;27;20367;-60
2021/07/27 09:32:58;;;;;;;;;;;26.70;60.50;;;;;;5133138;27;19967;-60
2021/07/27 09:35:27;;;;;;;;;;;26.70;60.60;;;;;;5130436;27;19932;-60
2021/07/27 09:38:01;;;;;;;;;;;26.80;60.80;;;;;;5117086;27;19923;-60
2021/07/27 09:40:28;;;;;;;;;;;26.70;60.80;;;;;;5131848;27;19923;-59
2021/07/27 09:42:56;;;;;;;;;;;26.70;60.80;;;;;;5132175;27;19924;-60
2021/07/27 09:45:24;;;;;;;;;;;26.70;60.80;;;;;;5133664;27;19923;-60
2021/07/27 09:47:53;;;;;;;;;;;26.70;60.90;;;;;;5133680;27;19955;-60
2021/07/27 09:50:24;;;;;;;;;;;26.70;61.00;;;;;;5132453;27;19972;-60
2021/07/27 09:52:51;;;;;;;;;;;26.70;60.90;;;;;;5121870;27;19966;-60
2021/07/27 09:55:22;;;;;;;;;;;26.70;61.00;;;;;;5125313;27;20382;-59
2021/07/27 09:57:49;;;;;;;;;;;26.70;60.90;;;;;;5132416;27;19924;-60
2021/07/27 10:00:17;;;;;;;;;;;26.70;60.80;;;;;;5131184;27;19962;-59
2021/07/27 10:02:46;;;;;;;;;;;26.70;60.90;;;;;;5132520;27;19958;-59
2021/07/27 10:05:15;;;;;;;;;;;26.80;61.00;;;;;;5132076;27;19934;-61
2021/07/27 10:07:50;;;;;;;;;;;26.80;60.90;;;;;;5132458;27;19930;-60
2021/07/27 10:10:17;;;;;;;;;;;26.80;61.00;;;;;;5114231;28;19923;-60
2021/07/27 10:12:44;;;;;;;;;;;26.80;60.90;;;;;;5130939;27;19923;-61
2021/07/27 10:15:12;;;;;;;;;;;26.80;60.70;;;;;;5133353;27;20387;-61
2021/07/27 10:17:53;;;;;;;;;;;26.80;60.90;;;;;;5132473;28;20332;-60
2021/07/27 10:20:21;;;;;;;;;;;26.80;60.90;;;;;;5096733;28;19923;-59
2021/07/27 10:22:48;;;;;;;;;;;26.80;60.90;;;;;;5131425;28;19923;-59
2021/07/27 10:25:16;;;;;;;;;;;26.80;61.00;;;;;;5132156;28;19935;-60
2021/07/27 10:27:50;;;;;;;;;;;26.80;61.00;;;;;;5132266;28;19984;-60
2021/07/27 10:30:28;;;;;;;;;;;26.70;61.00;;;;;;5133215;28;19980;-59
2021/07/27 10:32:55;;;;;;;;;;;26.80;61.00;;;;;;5131875;28;20439;-59
2021/07/27 10:35:33;;;;;;;;;;;26.80;61.10;;;;;;5131785;27;20252;-60
2021/07/27 10:38:06;;;;;;;;;;;26.80;61.20;;;;;;5119834;27;19953;-60
2021/07/27 10:40:38;;;;;;;;;;;26.80;61.40;;;;;;5136063;27;19924;-60
2021/07/27 10:43:06;;;;;;;;;;;26.80;61.10;;;;;;5137530;27;19963;-60
2021/07/27 10:45:34;;;;;;;;;;;26.80;61.10;;;;;;5136406;27;19931;-61
2021/07/27 10:48:02;;;;;;;;;;;26.80;61.30;;;;;;5135317;27;20003;-59
2021/07/27 10:50:30;;;;;;;;;;;26.80;61.30;;;;;;5101696;27;20349;-60
2021/07/27 10:53:06;;;;;;;;;;;26.80;61.40;;;;;;5137551;27;19923;-60
2021/07/27 10:55:33;;;;;;;;;;;26.80;61.60;;;;;;5136719;27;20444;-60
2021/07/27 10:58:04;;;;;;;;;;;26.70;61.50;;;;;;5134983;27;19953;-60
2021/07/27 11:00:32;;;;;;;;;;;26.70;61.70;;;;;;5136819;27;19923;-60
2021/07/27 11:03:00;;;;;;;;;;;26.80;61.90;;;;;;5137301;27;19924;-59
2021/07/27 11:05:28;;;;;;;;;;;26.70;61.90;;;;;;5135490;27;19946;-59
2021/07/27 11:07:55;;;;;;;;;;;26.70;62.00;;;;;;5136997;27;19923;-60
2021/07/27 11:10:23;;;;;;;;;;;26.70;62.00;;;;;;5134198;27;20001;-58
2021/07/27 11:12:50;;;;;;;;;;;26.70;62.00;;;;;;5136759;27;20439;-59
2021/07/27 11:15:21;;;;;;;;;;;26.70;62.10;;;;;;5123887;27;19973;-59
2021/07/27 11:17:49;;;;;;;;;;;26.70;62.00;;;;;;5131866;27;19963;-60
2021/07/27 11:20:21;;;;;;;;;;;26.70;62.00;;;;;;5136406;27;19924;-60
2021/07/27 11:22:50;;;;;;;;;;;26.70;62.00;;;;;;5124747;27;19933;-60
2021/07/27 11:25:18;;;;;;;;;;;26.70;62.00;;;;;;5120087;27;19955;-60
2021/07/27 11:27:45;;;;;;;;;;;26.70;61.90;;;;;;5128537;27;19963;-60
2021/07/27 11:30:13;;;;;;;;;;;26.70;62.00;;;;;;5127157;27;19924;-59
2021/07/27 11:32:41;;;;;;;;;;;26.70;61.70;;;;;;5127880;27;19931;-59
2021/07/27 11:35:15;;;;;;;;;;;26.70;61.80;;;;;;5134118;27;20272;-60
2021/07/27 11:37:44;;;;;;;;;;;26.80;61.70;;;;;;5101806;28;20325;-60
2021/07/27 11:40:22;;;;;;;;;;;26.80;61.60;;;;;;5125289;27;20291;-60
2021/07/27 11:42:58;;;;;;;;;;;26.80;61.60;;;;;;5136033;27;19972;-60
2021/07/27 11:45:25;;;;;;;;;;;26.80;61.60;;;;;;5135440;27;19931;-60
2021/07/27 11:47:53;;;;;;;;;;;26.80;61.40;;;;;;5114420;27;20410;-59
2021/07/27 11:50:27;;;;;;;;;;;26.80;61.30;;;;;;5134753;27;19923;-60
2021/07/27 11:52:58;;;;;;;;;;;26.80;61.30;;;;;;5134880;27;19951;-60
2021/07/27 11:55:29;;;;;;;;;;;26.80;61.20;;;;;;5117710;27;20058;-60
2021/07/27 11:57:56;;;;;;;;;;;26.80;61.10;;;;;;5134364;27;19952;-60
2021/07/27 12:00:24;;;;;;;;;;;26.80;61.30;;;;;;5135850;27;19963;-60
2021/07/27 12:02:51;;;;;;;;;;;26.80;61.20;;;;;;5136061;27;20014;-60
2021/07/27 12:05:18;;;;;;;;;;;26.80;61.20;;;;;;5134573;27;20006;-60
2021/07/27 12:07:45;;;;;;;;;;;26.80;61.20;;;;;;5134716;27;19966;-60
2021/07/27 12:10:13;;;;;;;;;;;26.80;61.30;;;;;;5135643;27;19930;-60
2021/07/27 12:12:40;;;;;;;;;;;26.80;61.30;;;;;;5135585;27;19924;-60
2021/07/27 12:15:07;;;;;;;;;;;26.90;61.40;;;;;;5117686;27;19954;-60
2021/07/27 12:17:34;;;;;;;;;;;26.90;61.50;;;;;;5134474;27;19923;-61
2021/07/27 12:20:01;;;;;;;;;;;26.80;61.40;;;;;;5117183;27;20314;-60
2021/07/27 12:22:28;;;;;;;;;;;26.90;61.50;;;;;;5116390;27;19923;-59
2021/07/27 12:24:56;;;;;;;;;;;26.90;61.50;;;;;;5135262;27;19978;-60
2021/07/27 12:27:23;;;;;;;;;;;26.90;61.50;;;;;;5132689;27;19979;-60
2021/07/27 12:29:50;;;;;;;;;;;26.90;61.40;;;;;;5121346;27;20342;-60
2021/07/27 12:32:17;;;;;;;;;;;26.90;61.30;;;;;;5131915;27;20260;-59
2021/07/27 12:35:04;;;;;;;;;;;26.90;61.30;;;;;;5120002;27;19927;-60
2021/07/27 12:37:33;;;;;;;;;;;26.90;61.30;;;;;;5115695;27;19923;-60
2021/07/27 12:40:00;;;;;;;;;;;26.90;61.30;;;;;;5134244;27;19927;-60
2021/07/27 12:42:27;;;;;;;;;;;26.90;61.30;;;;;;5134069;27;19931;-60
2021/07/27 12:44:55;;;;;;;;;;;26.90;61.30;;;;;;5133668;27;19923;-61
2021/07/27 12:47:22;;;;;;;;;;;27.00;61.30;;;;;;5135379;27;19976;-60
2021/07/27 12:49:49;;;;;;;;;;;26.90;61.30;;;;;;5133855;27;20320;-60
2021/07/27 12:52:16;;;;;;;;;;;27.00;61.40;;;;;;5133821;27;20017;-60
2021/07/27 12:54:42;;;;;;;;;;;27.00;61.30;;;;;;5133396;27;19924;-60
2021/07/27 12:57:13;;;;;;;;;;;27.00;61.20;;;;;;5133690;27;19923;-60
2021/07/27 12:59:43;;;;;;;;;;;27.00;61.30;;;;;;5134618;27;19923;-60
2021/07/27 13:02:10;;;;;;;;;;;27.00;61.20;;;;;;5117188;27;20387;-60
2021/07/27 13:04:39;;;;;;;;;;;27.00;61.20;;;;;;5132482;27;21344;-60
2021/07/27 13:07:07;;;;;;;;;;;27.00;61.10;;;;;;5133717;27;19976;-59
2021/07/27 13:09:35;;;;;;;;;;;27.00;61.20;;;;;;5131521;27;19981;-60
2021/07/27 13:12:02;;;;;;;;;;;27.00;61.10;;;;;;5101829;27;19969;-60
2021/07/27 13:14:30;;;;;;;;;;;27.00;61.10;;;;;;5131998;27;19923;-59
2021/07/27 13:17:00;;;;;;;;;;;27.00;61.10;;;;;;5134459;27;20421;-60
2021/07/27 13:19:27;;;;;;;;;;;27.00;61.10;;;;;;5133247;27;19927;-59
2021/07/27 13:21:54;;;;;;;;;;;27.00;61.10;;;;;;5133271;27;19927;-59
2021/07/27 13:24:21;;;;;;;;;;;27.00;61.10;;;;;;5116487;27;19958;-59
2021/07/27 13:26:48;;;;;;;;;;;27.00;61.10;;;;;;5133447;27;19927;-60
2021/07/27 13:29:15;;;;;;;;;;;27.00;61.00;;;;;;5132459;27;19958;-60
2021/07/27 13:31:41;;;;;;;;;;;27.00;61.10;;;;;;5133046;27;19924;-60
2021/07/27 13:34:08;;;;;;;;;;;27.00;61.10;;;;;;5131533;27;19923;-60
2021/07/27 13:36:35;;;;;;;;;;;27.00;61.00;;;;;;5133339;27;19975;-59
2021/07/27 13:39:02;;;;;;;;;;;27.00;61.00;;;;;;5131721;27;20281;-60
2021/07/27 13:41:29;;;;;;;;;;;27.00;61.00;;;;;;5133137;27;19967;-60
2021/07/27 13:43:56;;;;;;;;;;;27.10;61.10;;;;;;5134056;27;19931;-60
2021/07/27 13:46:24;;;;;;;;;;;27.10;61.10;;;;;;5131594;27;20260;-60
2021/07/27 13:48:51;;;;;;;;;;;27.00;61.00;;;;;;5130534;27;19973;-61
2021/07/27 13:51:18;;;;;;;;;;;27.10;61.20;;;;;;5132671;27;19924;-60
2021/07/27 13:53:45;;;;;;;;;;;27.10;61.10;;;;;;5133981;27;20002;-60
2021/07/27 13:56:12;;;;;;;;;;;27.10;61.20;;;;;;5133671;27;20340;-60
2021/07/27 13:58:39;;;;;;;;;;;27.10;61.20;;;;;;5133453;27;20017;-60
2021/07/27 14:01:06;;;;;;;;;;;27.10;61.10;;;;;;5115445;28;19976;-60
2021/07/27 14:03:33;;;;;;;;;;;27.10;61.20;;;;;;5114101;27;19924;-60
2021/07/27 14:06:01;;;;;;;;;;;27.10;61.30;;;;;;5130569;27;19999;-60
2021/07/27 14:08:28;;;;;;;;;;;27.10;61.20;;;;;;5118506;27;19974;-60
2021/07/27 14:10:55;;;;;;;;;;;27.10;61.30;;;;;;5132845;27;19924;-61
2021/07/27 14:13:21;;;;;;;;;;;27.10;61.30;;;;;;5131389;27;20367;-60
2021/07/27 14:15:48;;;;;;;;;;;27.10;61.40;;;;;;5132509;27;19969;-60
2021/07/27 14:18:15;;;;;;;;;;;27.10;61.40;;;;;;5133909;28;20037;-60
2021/07/27 14:20:42;;;;;;;;;;;27.10;61.40;;;;;;5133811;28;19931;-60
2021/07/27 14:23:09;;;;;;;;;;;27.10;61.40;;;;;;5133626;28;19924;-60
2021/07/27 14:25:36;;;;;;;;;;;27.10;61.60;;;;;;5132178;28;19975;-60
2021/07/27 14:28:03;;;;;;;;;;;27.10;61.50;;;;;;5130933;28;20348;-60
2021/07/27 14:30:30;;;;;;;;;;;27.10;61.40;;;;;;5130984;28;19923;-60
2021/07/27 14:32:57;;;;;;;;;;;27.10;61.50;;;;;;5132507;28;20391;-60
2021/07/27 14:35:25;;;;;;;;;;;27.10;61.50;;;;;;5128576;28;20453;-60
2021/07/27 14:37:54;;;;;;;;;;;27.10;61.50;;;;;;5127384;28;20101;-59
2021/07/27 14:40:21;;;;;;;;;;;27.10;61.50;;;;;;5113590;28;19923;-60
2021/07/27 14:42:48;;;;;;;;;;;27.10;61.50;;;;;;5131886;28;19931;-60
2021/07/27 14:45:15;;;;;;;;;;;27.10;61.50;;;;;;5133533;28;19927;-60